createdAt,value
2022-09-23T00:01:05.270Z,0.30
2022-09-23T00:03:33.329Z,0.30
2022-09-23T00:06:01.602Z,0.20
2022-09-23T00:08:29.364Z,0.60
2022-09-23T00:10:56.824Z,0.30
2022-09-23T00:13:24.995Z,0.20
2022-09-23T00:15:52.276Z,0.20
2022-09-23T00:18:20.931Z,0.30
2022-09-23T00:20:49.313Z,0.20
2022-09-23T00:23:16.361Z,0.40
2022-09-23T00:25:43.357Z,0.50
2022-09-23T00:28:10.451Z,0.20
2022-09-23T00:30:37.543Z,0.40
2022-09-23T00:33:04.546Z,0.40
2022-09-23T00:35:31.592Z,0.40
2022-09-23T00:37:58.666Z,0.30
2022-09-23T00:40:26.434Z,0.20
2022-09-23T00:42:53.658Z,0.50
2022-09-23T00:45:20.807Z,0.20
2022-09-23T00:47:51.297Z,0.30
2022-09-23T00:50:38.452Z,0.40
2022-09-23T00:53:10.703Z,0.30
2022-09-23T00:55:55.484Z,0.20
2022-09-23T00:58:26.929Z,0.50
2022-09-23T01:00:54.779Z,0.40
2022-09-23T01:03:23.281Z,0.50
2022-09-23T01:05:50.330Z,0.30
2022-09-23T01:08:19.835Z,0.30
2022-09-23T01:11:06.387Z,0.30
2022-09-23T01:13:44.461Z,0.30
2022-09-23T01:16:32.879Z,0.20
2022-09-23T01:19:23.903Z,0.20
2022-09-23T01:22:05.285Z,0.20
2022-09-23T01:25:08.841Z,0.20
2022-09-23T01:27:48.019Z,0.20
2022-09-23T01:30:44.917Z,0.20
2022-09-23T01:33:24.610Z,0.30
2022-09-23T01:36:34.160Z,0.20
2022-09-23T01:39:09.498Z,0.40
2022-09-23T01:42:17.827Z,0.20
2022-09-23T01:44:50.978Z,0.30
2022-09-23T01:50:03.835Z,0.10
2022-09-23T01:52:33.082Z,0.10
2022-09-23T01:55:28.236Z,0.20
2022-09-23T01:58:15.152Z,0.10
2022-09-23T02:00:49.337Z,0.20
2022-09-23T02:03:27.942Z,0.20
2022-09-23T02:09:39.083Z,0.20
2022-09-23T02:16:13.792Z,0.10
2022-09-23T02:19:02.696Z,0.30
2022-09-23T02:21:35.018Z,0.20
2022-09-23T02:24:15.441Z,0.50
2022-09-23T02:27:01.856Z,0.30
2022-09-23T02:29:36.985Z,0.20
2022-09-23T02:32:13.030Z,0.30
2022-09-23T02:34:42.743Z,0.30
2022-09-23T02:37:36.108Z,0.40
2022-09-23T02:40:18.571Z,0.40
2022-09-23T02:43:07.069Z,0.40
2022-09-23T02:45:34.286Z,0.40
2022-09-23T02:48:07.407Z,0.40
2022-09-23T02:50:34.555Z,0.70
2022-09-23T02:53:01.705Z,0.40
2022-09-23T02:55:32.647Z,0.50
2022-09-23T02:58:03.584Z,0.60
2022-09-23T03:00:58.980Z,0.60
2022-09-23T03:03:38.840Z,0.60
2022-09-23T03:06:15.418Z,0.70
2022-09-23T03:09:08.473Z,0.80
2022-09-23T03:11:37.154Z,0.90
2022-09-23T03:14:25.806Z,0.40
2022-09-23T03:17:03.787Z,0.50
2022-09-23T03:19:49.086Z,0.50
2022-09-23T03:22:46.445Z,0.40
2022-09-23T03:25:16.260Z,0.50
2022-09-23T03:27:43.813Z,0.70
2022-09-23T03:30:11.486Z,0.90
2022-09-23T03:32:38.931Z,0.90
2022-09-23T03:35:06.598Z,0.60
2022-09-23T03:37:40.500Z,0.60
2022-09-23T03:40:12.585Z,1.00
2022-09-23T03:42:39.720Z,0.60
2022-09-23T03:45:09.829Z,0.80
2022-09-23T03:47:39.757Z,0.70
2022-09-23T03:50:07.638Z,0.70
2022-09-23T03:52:34.666Z,0.80
2022-09-23T03:55:01.724Z,1.00
2022-09-23T03:57:28.819Z,0.90
2022-09-23T03:59:55.810Z,0.80
2022-09-23T04:02:22.930Z,0.90
2022-09-23T04:04:50.309Z,1.00
2022-09-23T04:07:17.562Z,0.90
2022-09-23T04:09:44.710Z,0.80
2022-09-23T04:12:13.413Z,1.10
2022-09-23T04:14:40.908Z,1.00
2022-09-23T04:17:08.410Z,0.90
2022-09-23T04:19:35.500Z,1.20
2022-09-23T04:22:02.515Z,1.10
2022-09-23T04:24:29.684Z,1.10
2022-09-23T04:26:56.907Z,1.30
2022-09-23T04:29:24.571Z,1.40
2022-09-23T04:31:56.611Z,1.60
2022-09-23T04:34:23.890Z,1.50
2022-09-23T04:36:51.144Z,1.50
2022-09-23T04:39:18.504Z,1.50
2022-09-23T04:41:45.946Z,1.40
2022-09-23T04:44:13.710Z,1.50
2022-09-23T04:46:47.541Z,1.90
2022-09-23T04:49:15.796Z,1.70
2022-09-23T04:51:43.904Z,1.70
2022-09-23T04:54:11.983Z,1.50
2022-09-23T04:56:40.026Z,1.60
2022-09-23T04:59:07.752Z,1.20
2022-09-23T05:01:36.658Z,2.00
2022-09-23T05:04:06.161Z,1.70
2022-09-23T05:06:34.706Z,1.50
2022-09-23T05:09:02.151Z,1.40
2022-09-23T05:11:30.174Z,2.00
2022-09-23T05:13:57.450Z,1.20
2022-09-23T05:16:24.860Z,1.40
2022-09-23T05:18:52.849Z,1.20
2022-09-23T05:21:24.004Z,1.20
2022-09-23T05:23:54.387Z,1.60
2022-09-23T05:26:22.493Z,2.10
2022-09-23T05:28:49.450Z,1.70
2022-09-23T05:31:20.332Z,1.50
2022-09-23T05:33:52.270Z,1.50
2022-09-23T05:36:21.438Z,1.50
2022-09-23T05:38:50.197Z,1.50
2022-09-23T05:41:18.403Z,1.40
2022-09-23T05:43:45.545Z,1.50
2022-09-23T05:46:13.586Z,1.60
2022-09-23T05:48:41.318Z,1.50
2022-09-23T05:51:13.052Z,1.40
2022-09-23T05:53:40.796Z,1.80
2022-09-23T05:56:08.204Z,2.00
2022-09-23T05:58:35.812Z,2.00
2022-09-23T06:01:09.719Z,2.00
2022-09-23T06:03:36.876Z,1.60
2022-09-23T06:06:04.018Z,1.90
2022-09-23T06:08:32.190Z,1.90
2022-09-23T06:10:59.377Z,1.60
2022-09-23T06:13:32.753Z,2.40
2022-09-23T06:16:00.132Z,2.40
2022-09-23T06:18:27.475Z,2.50
2022-09-23T06:20:54.495Z,1.90
2022-09-23T06:23:25.437Z,2.40
2022-09-23T06:25:54.526Z,2.30
2022-09-23T06:28:21.830Z,2.20
2022-09-23T06:30:49.663Z,2.30
2022-09-23T06:33:19.643Z,2.30
2022-09-23T06:35:59.906Z,2.70
2022-09-23T06:38:27.375Z,2.60
2022-09-23T06:40:55.853Z,2.50
2022-09-23T06:43:23.548Z,2.00
2022-09-23T06:45:57.465Z,2.20
2022-09-23T06:48:25.085Z,2.10
2022-09-23T06:50:53.973Z,2.30
2022-09-23T06:53:24.253Z,2.40
2022-09-23T06:56:11.605Z,2.70
2022-09-23T06:58:39.206Z,2.40
2022-09-23T07:01:11.361Z,3.00
2022-09-23T07:03:38.533Z,2.40
2022-09-23T07:06:06.188Z,2.20
2022-09-23T07:08:36.072Z,2.40
2022-09-23T07:11:07.349Z,2.40
2022-09-23T07:13:34.496Z,3.20
2022-09-23T07:16:02.397Z,3.00
2022-09-23T07:18:36.227Z,3.00
2022-09-23T07:21:15.703Z,3.20
2022-09-23T07:23:50.278Z,3.60
2022-09-23T07:26:18.271Z,3.40
2022-09-23T07:28:45.845Z,3.10
2022-09-23T07:31:23.861Z,2.80
2022-09-23T07:34:01.469Z,3.00
2022-09-23T07:36:29.927Z,2.90
2022-09-23T07:39:02.589Z,3.20
2022-09-23T07:41:36.498Z,2.80
2022-09-23T07:44:03.750Z,2.70
2022-09-23T07:46:32.972Z,2.80
2022-09-23T07:49:00.523Z,3.10
2022-09-23T07:51:34.772Z,3.10
2022-09-23T07:54:03.022Z,2.80
2022-09-23T07:56:30.378Z,2.60
2022-09-23T07:59:00.590Z,2.80
2022-09-23T08:01:36.049Z,3.20
2022-09-23T08:04:07.082Z,4.00
2022-09-23T08:06:34.235Z,3.30
2022-09-23T08:09:01.787Z,3.50
2022-09-23T08:11:28.959Z,3.90
2022-09-23T08:13:56.603Z,3.60
2022-09-23T08:16:23.818Z,3.50
2022-09-23T08:18:51.132Z,3.70
2022-09-23T08:21:20.324Z,4.20
2022-09-23T08:23:49.075Z,3.30
2022-09-23T08:26:21.550Z,3.70
2022-09-23T08:28:55.270Z,3.80
2022-09-23T08:31:22.936Z,4.10
2022-09-23T08:33:59.466Z,3.80
2022-09-23T08:36:27.266Z,3.40
2022-09-23T08:38:55.440Z,3.40
2022-09-23T08:41:59.229Z,3.40
2022-09-23T08:44:37.867Z,3.20
2022-09-23T08:47:24.059Z,3.20
2022-09-23T08:49:56.537Z,3.20
2022-09-23T08:52:33.824Z,8.40
2022-09-23T08:55:02.244Z,9.00
2022-09-23T08:57:39.096Z,5.20
2022-09-23T09:00:06.974Z,3.30
2022-09-23T09:02:34.869Z,2.90
2022-09-23T09:05:06.280Z,2.50
2022-09-23T09:07:37.419Z,2.30
2022-09-23T09:10:15.426Z,2.60
2022-09-23T09:12:51.086Z,2.40
2022-09-23T09:15:24.699Z,2.90
2022-09-23T09:17:59.504Z,2.80
2022-09-23T09:20:49.221Z,2.10
2022-09-23T09:23:23.036Z,2.10
2022-09-23T09:25:54.746Z,1.90
2022-09-23T09:28:26.786Z,1.90
2022-09-23T09:31:00.526Z,1.90
2022-09-23T09:33:32.475Z,2.90
2022-09-23T09:36:21.027Z,3.00
2022-09-23T09:38:48.007Z,2.00
2022-09-23T09:41:17.950Z,2.10
2022-09-23T09:45:46.283Z,2.30
2022-09-23T09:48:33.253Z,3.20
2022-09-23T09:51:30.857Z,3.10
2022-09-23T09:54:24.601Z,3.30
2022-09-23T09:56:52.038Z,2.00
2022-09-23T09:59:24.914Z,2.00
2022-09-23T10:02:12.644Z,2.30
2022-09-23T10:04:40.200Z,2.30
2022-09-23T10:07:18.493Z,2.10
2022-09-23T10:10:22.065Z,2.20
2022-09-23T10:13:38.943Z,2.50
2022-09-23T10:16:07.042Z,2.90
2022-09-23T10:18:48.836Z,3.10
2022-09-23T10:21:35.881Z,2.90
2022-09-23T10:27:14.628Z,2.50
2022-09-23T10:29:47.878Z,2.60
2022-09-23T10:32:40.807Z,3.80
2022-09-23T10:35:11.577Z,2.50
2022-09-23T10:37:42.375Z,2.90
2022-09-23T10:40:42.618Z,3.20
2022-09-23T10:43:52.043Z,2.60
2022-09-23T10:46:46.025Z,2.60
2022-09-23T10:50:03.963Z,2.60
2022-09-23T10:52:48.727Z,2.20
2022-09-23T10:55:25.167Z,2.90
2022-09-23T10:58:19.900Z,2.20
2022-09-23T11:01:27.312Z,2.10
2022-09-23T11:04:34.874Z,2.50
2022-09-23T11:07:27.258Z,2.50
2022-09-23T11:10:45.643Z,2.70
2022-09-23T11:13:24.725Z,2.10
2022-09-23T11:16:34.574Z,2.50
2022-09-23T11:19:25.583Z,2.50
2022-09-23T11:22:08.470Z,2.50
2022-09-23T11:25:14.696Z,2.40
2022-09-23T11:28:04.071Z,1.60
2022-09-23T11:30:41.486Z,1.00
2022-09-23T11:33:37.963Z,0.40
2022-09-23T11:36:07.160Z,0.40
2022-09-23T11:38:45.718Z,0.40
2022-09-23T11:41:17.947Z,0.40
2022-09-23T11:43:53.000Z,0.50
2022-09-23T11:46:36.517Z,0.40
2022-09-23T11:49:17.185Z,0.50
2022-09-23T11:51:47.918Z,0.60
2022-09-23T11:54:21.360Z,1.10
2022-09-23T11:56:52.141Z,1.30
2022-09-23T11:59:34.810Z,1.40
2022-09-23T12:02:20.811Z,1.60
2022-09-23T12:04:57.700Z,0.70
2022-09-23T12:07:48.329Z,0.80
2022-09-23T12:10:15.477Z,0.60
2022-09-23T12:12:57.222Z,0.80
2022-09-23T12:15:39.678Z,0.80
2022-09-23T12:18:34.785Z,0.80
2022-09-23T12:21:27.419Z,1.60
2022-09-23T12:24:18.965Z,1.60
2022-09-23T12:26:53.684Z,1.00
2022-09-23T12:29:23.556Z,1.40
2022-09-23T12:31:53.207Z,1.10
2022-09-23T12:34:21.682Z,1.50
2022-09-23T12:36:48.729Z,1.60
2022-09-23T12:39:26.120Z,1.90
2022-09-23T12:41:58.802Z,1.80
2022-09-23T12:44:33.161Z,2.00
2022-09-23T12:47:25.810Z,2.60
2022-09-23T12:50:02.130Z,2.40
2022-09-23T12:52:33.043Z,2.50
2022-09-23T12:55:27.009Z,2.60
2022-09-23T12:57:55.223Z,3.00
2022-09-23T13:00:29.832Z,2.50
2022-09-23T13:03:21.272Z,3.20
2022-09-23T13:06:11.173Z,7.90
2022-09-23T13:08:39.626Z,7.40
2022-09-23T13:11:39.248Z,2.80
2022-09-23T13:14:27.395Z,5.80
2022-09-23T13:16:57.364Z,3.30
2022-09-23T13:19:28.041Z,3.50
2022-09-23T13:21:55.181Z,1.90
2022-09-23T13:24:25.226Z,1.40
2022-09-23T13:26:57.580Z,0.90
2022-09-23T13:29:28.647Z,0.70
2022-09-23T13:31:58.137Z,0.70
2022-09-23T13:34:27.369Z,0.70
2022-09-23T13:36:54.563Z,0.60
2022-09-23T13:39:25.308Z,0.50
2022-09-23T13:41:53.838Z,0.60
2022-09-23T13:44:21.134Z,0.70
2022-09-23T13:46:51.569Z,0.60
2022-09-23T13:49:26.388Z,0.60
2022-09-23T13:51:54.344Z,0.80
2022-09-23T13:54:54.924Z,0.90
2022-09-23T13:57:34.157Z,1.10
2022-09-23T14:00:21.880Z,1.40
2022-09-23T14:02:49.009Z,0.90
2022-09-23T14:05:27.358Z,1.10
2022-09-23T14:07:54.783Z,1.20
2022-09-23T14:10:29.784Z,1.70
2022-09-23T14:13:01.325Z,1.10
2022-09-23T14:15:28.511Z,1.10
2022-09-23T14:18:02.423Z,1.60
2022-09-23T14:20:29.394Z,4.30
2022-09-23T14:23:07.082Z,2.10
2022-09-23T14:25:34.521Z,2.20
2022-09-23T14:28:01.695Z,2.10
2022-09-23T14:30:29.024Z,1.70
2022-09-23T14:32:56.607Z,2.10
2022-09-23T14:35:29.788Z,1.80
2022-09-23T14:41:14.146Z,2.10
2022-09-23T14:44:07.074Z,2.50
2022-09-23T14:46:36.225Z,25.70
2022-09-23T14:49:13.705Z,129.80
2022-09-23T14:52:07.160Z,629.10
2022-09-23T14:54:40.459Z,999.90
2022-09-23T14:57:23.580Z,801.50
2022-09-23T15:00:13.576Z,494.80
2022-09-23T15:02:45.191Z,491.20
2022-09-23T15:05:15.812Z,274.90
2022-09-23T15:11:15.121Z,27.50
2022-09-23T15:13:44.708Z,10.90
2022-09-23T15:16:28.400Z,4.40
2022-09-23T15:19:28.483Z,2.80
2022-09-23T15:22:18.992Z,2.10
2022-09-23T15:25:17.517Z,2.40
2022-09-23T15:27:56.316Z,2.00
2022-09-23T15:30:23.777Z,2.00
2022-09-23T15:32:51.129Z,1.50
2022-09-23T15:35:20.169Z,1.40
2022-09-23T15:37:54.813Z,1.70
2022-09-23T15:40:30.127Z,2.00
2022-09-23T15:42:58.985Z,1.90
2022-09-23T15:45:40.897Z,2.50
2022-09-23T15:48:18.066Z,2.80
2022-09-23T15:50:48.510Z,2.70
2022-09-23T15:53:28.599Z,2.30
2022-09-23T15:55:59.002Z,1.90
2022-09-23T15:58:40.078Z,2.00
2022-09-23T16:01:07.994Z,2.40
2022-09-23T16:03:35.095Z,1.90
2022-09-23T16:06:03.459Z,2.40
2022-09-23T16:08:33.044Z,2.20
2022-09-23T16:11:00.545Z,2.20
2022-09-23T16:13:27.894Z,3.10
2022-09-23T16:15:55.041Z,3.60
2022-09-23T16:18:22.090Z,5.00
2022-09-23T16:20:49.687Z,8.30
2022-09-23T16:23:34.905Z,11.70
2022-09-23T16:26:24.496Z,7.80
2022-09-23T16:28:53.173Z,6.50
2022-09-23T16:31:20.501Z,10.40
2022-09-23T16:33:48.402Z,9.20
2022-09-23T16:36:21.695Z,6.80
2022-09-23T16:38:53.463Z,5.10
2022-09-23T16:41:20.755Z,4.60
2022-09-23T16:43:51.030Z,4.00
2022-09-23T16:46:18.480Z,4.10
2022-09-23T16:48:52.138Z,3.60
2022-09-23T16:51:21.702Z,3.70
2022-09-23T16:53:52.127Z,3.30
2022-09-23T16:56:25.711Z,3.80
2022-09-23T16:58:55.125Z,3.40
2022-09-23T17:01:45.849Z,3.90
2022-09-23T17:04:13.694Z,4.30
2022-09-23T17:06:44.891Z,7.90
2022-09-23T17:09:12.398Z,6.60
2022-09-23T17:11:42.198Z,6.30
2022-09-23T17:14:10.687Z,6.20
2022-09-23T17:16:37.806Z,5.60
2022-09-23T17:19:11.042Z,5.20
2022-09-23T17:21:43.600Z,4.80
2022-09-23T17:24:14.746Z,5.70
2022-09-23T17:26:41.900Z,5.70
2022-09-23T17:29:09.826Z,5.00
2022-09-23T17:31:46.882Z,5.40
2022-09-23T17:34:14.103Z,5.40
2022-09-23T17:36:47.290Z,6.30
2022-09-23T17:39:14.445Z,5.80
2022-09-23T17:41:43.757Z,6.40
2022-09-23T17:44:16.170Z,5.90
2022-09-23T17:46:49.621Z,7.80
2022-09-23T17:49:27.308Z,8.90
2022-09-23T17:52:07.559Z,9.40
2022-09-23T17:54:40.445Z,8.70
2022-09-23T17:57:07.727Z,9.00
2022-09-23T17:59:34.848Z,10.20
2022-09-23T18:02:01.961Z,8.90
2022-09-23T18:04:41.707Z,8.50
2022-09-23T18:07:10.734Z,8.40
2022-09-23T18:09:37.780Z,6.90
2022-09-23T18:12:04.898Z,7.10
2022-09-23T18:14:32.008Z,5.90
2022-09-23T18:17:04.040Z,4.80
2022-09-23T18:19:30.997Z,4.00
2022-09-23T18:21:58.243Z,3.40
2022-09-23T18:24:32.334Z,2.70
2022-09-23T18:27:00.172Z,2.50
2022-09-23T18:29:27.674Z,2.60
2022-09-23T18:32:00.433Z,2.30
2022-09-23T18:34:32.624Z,2.10
2022-09-23T18:36:59.819Z,5.30
2022-09-23T18:39:29.405Z,8.90
2022-09-23T18:42:05.640Z,9.40
2022-09-23T18:44:34.053Z,10.20
2022-09-23T18:47:01.177Z,10.70
2022-09-23T18:49:46.890Z,8.60
2022-09-23T18:52:24.285Z,6.80
2022-09-23T18:54:55.046Z,8.00
2022-09-23T18:57:54.700Z,8.20
2022-09-23T19:00:21.748Z,7.20
2022-09-23T19:02:54.505Z,7.30
2022-09-23T19:05:22.125Z,7.30
2022-09-23T19:07:49.413Z,5.00
2022-09-23T19:10:56.096Z,5.90
2022-09-23T19:13:37.099Z,4.80
2022-09-23T19:16:10.072Z,4.00
2022-09-23T19:21:10.958Z,3.00
2022-09-23T19:23:38.520Z,2.70
2022-09-23T19:26:10.609Z,3.10
2022-09-23T19:28:37.932Z,2.70
2022-09-23T19:31:22.486Z,2.60
2022-09-23T19:33:57.532Z,2.00
2022-09-23T19:36:32.562Z,1.70
2022-09-23T19:39:03.065Z,1.40
2022-09-23T19:41:32.387Z,1.90
2022-09-23T19:44:03.584Z,1.90
2022-09-23T19:46:31.262Z,1.90
2022-09-23T19:48:58.856Z,1.70
2022-09-23T19:51:26.206Z,2.10
2022-09-23T19:53:53.604Z,1.80
2022-09-23T19:56:20.608Z,1.70
2022-09-23T19:58:51.350Z,1.80
2022-09-23T20:01:18.667Z,2.20
2022-09-23T20:03:47.199Z,1.90
2022-09-23T20:06:15.147Z,2.40
2022-09-23T20:08:42.295Z,2.20
2022-09-23T20:11:27.653Z,2.60
2022-09-23T20:14:06.546Z,2.20
2022-09-23T20:16:37.397Z,2.30
2022-09-23T20:19:05.785Z,2.30
2022-09-23T20:21:33.957Z,2.60
2022-09-23T20:24:01.632Z,2.30
2022-09-23T20:26:47.642Z,2.80
2022-09-23T20:29:14.688Z,2.30
2022-09-23T20:31:41.923Z,3.00
2022-09-23T20:34:10.727Z,2.90
2022-09-23T20:36:39.370Z,2.80
2022-09-23T20:39:06.659Z,2.60
2022-09-23T20:41:37.440Z,2.10
2022-09-23T20:47:14.208Z,2.70
2022-09-23T20:49:43.785Z,2.10
2022-09-23T20:52:15.459Z,2.00
2022-09-23T20:54:42.827Z,1.60
2022-09-23T20:57:14.310Z,1.90
2022-09-23T20:59:41.406Z,1.80
2022-09-23T21:02:08.638Z,2.00
2022-09-23T21:04:35.808Z,1.60
2022-09-23T21:07:05.828Z,1.90
2022-09-23T21:09:32.901Z,1.20
2022-09-23T21:11:59.925Z,1.60
2022-09-23T21:14:26.986Z,1.80
2022-09-23T21:16:55.250Z,1.90
2022-09-23T21:19:23.018Z,1.40
2022-09-23T21:21:50.155Z,1.70
2022-09-23T21:24:45.688Z,1.80
2022-09-23T21:27:04.756Z,1.70
2022-09-23T21:29:31.775Z,1.60
2022-09-23T21:31:58.785Z,1.60
2022-09-23T21:34:28.434Z,1.80
2022-09-23T21:36:55.631Z,1.70
2022-09-23T21:39:24.997Z,2.00
2022-09-23T21:41:54.593Z,2.20
2022-09-23T21:44:21.740Z,2.30
2022-09-23T21:46:49.051Z,2.10
2022-09-23T21:49:16.162Z,2.50
2022-09-23T21:51:43.201Z,3.10
2022-09-23T21:54:15.851Z,3.70
2022-09-23T21:56:48.105Z,3.40
2022-09-23T21:59:15.184Z,3.20
2022-09-23T22:02:40.224Z,4.80
2022-09-23T22:05:07.851Z,3.20
2022-09-23T22:07:40.732Z,2.90
2022-09-23T22:10:08.418Z,2.30
2022-09-23T22:12:35.647Z,2.40
2022-09-23T22:15:02.696Z,2.10
2022-09-23T22:17:31.177Z,2.20
2022-09-23T22:19:58.835Z,2.20
2022-09-23T22:22:25.818Z,1.50
2022-09-23T22:24:52.834Z,1.90
2022-09-23T22:27:20.516Z,1.80
2022-09-23T22:30:06.708Z,3.30
2022-09-23T22:32:43.799Z,8.10
2022-09-23T22:35:12.400Z,11.10
2022-09-23T22:37:39.502Z,10.40
2022-09-23T22:40:08.493Z,7.50
2022-09-23T22:42:36.770Z,4.60
2022-09-23T22:45:06.034Z,2.90
2022-09-23T22:47:39.768Z,2.30
2022-09-23T22:50:08.560Z,2.00
2022-09-23T22:52:35.819Z,1.00
2022-09-23T22:55:03.986Z,0.90
2022-09-23T22:57:31.649Z,0.90
2022-09-23T22:59:58.803Z,1.20
2022-09-23T23:02:25.947Z,1.10
2022-09-23T23:04:53.573Z,0.80
2022-09-23T23:07:21.618Z,1.30
2022-09-23T23:09:52.519Z,1.10
2022-09-23T23:12:20.549Z,0.70
2022-09-23T23:14:48.594Z,1.00
2022-09-23T23:17:15.704Z,1.00
2022-09-23T23:19:42.751Z,1.20
2022-09-23T23:22:09.796Z,1.20
2022-09-23T23:24:36.768Z,0.80
2022-09-23T23:27:03.995Z,1.30
2022-09-23T23:29:31.142Z,0.70
2022-09-23T23:31:58.118Z,0.90
2022-09-23T23:34:25.455Z,0.80
2022-09-23T23:36:55.259Z,0.80
2022-09-23T23:39:26.375Z,1.10
2022-09-23T23:41:55.186Z,0.60
2022-09-23T23:44:24.027Z,1.00
2022-09-23T23:46:51.404Z,1.10
2022-09-23T23:49:23.446Z,1.10
2022-09-23T23:51:50.659Z,1.10
2022-09-23T23:54:17.815Z,0.80
2022-09-23T23:56:44.955Z,0.80
2022-09-23T23:59:12.241Z,0.80
